createdAt,value
2019-04-06T00:02:02.571Z,7.23
2019-04-06T00:04:31.976Z,7.16
2019-04-06T00:07:01.298Z,7.11
2019-04-06T00:09:30.867Z,7.08
2019-04-06T00:12:00.301Z,7.08
2019-04-06T00:14:29.867Z,7.05
2019-04-06T00:16:59.199Z,7.02
2019-04-06T00:19:28.746Z,6.98
2019-04-06T00:21:58.037Z,7.00
2019-04-06T00:24:27.318Z,6.93
2019-04-06T00:26:56.954Z,6.95
2019-04-06T00:29:26.325Z,6.92
2019-04-06T00:32:12.292Z,6.85
2019-04-06T00:34:41.666Z,6.81
2019-04-06T00:37:10.952Z,6.82
2019-04-06T00:39:40.359Z,6.85
2019-04-06T00:42:09.799Z,6.87
2019-04-06T00:44:39.102Z,6.86
2019-04-06T00:47:08.476Z,6.85
2019-04-06T00:49:37.881Z,6.86
2019-04-06T00:52:07.221Z,6.85
2019-04-06T00:54:36.556Z,6.82
2019-04-06T00:57:05.956Z,6.84
2019-04-06T00:59:35.240Z,6.82
2019-04-06T01:02:05.919Z,6.78
2019-04-06T01:04:35.260Z,6.77
2019-04-06T01:07:04.753Z,6.82
2019-04-06T01:09:34.023Z,6.80
2019-04-06T01:12:03.336Z,6.78
2019-04-06T01:14:32.741Z,6.80
2019-04-06T01:17:02.011Z,6.77
2019-04-06T01:19:31.400Z,6.67
2019-04-06T01:22:00.899Z,6.61
2019-04-06T01:24:30.180Z,6.62
2019-04-06T01:26:59.665Z,6.61
2019-04-06T01:29:29.091Z,6.58
2019-04-06T01:31:58.596Z,6.51
2019-04-06T01:34:27.955Z,6.51
2019-04-06T01:36:57.307Z,6.42
2019-04-06T01:39:26.587Z,6.50
2019-04-06T01:41:56.102Z,6.43
2019-04-06T01:44:25.697Z,6.43
2019-04-06T01:46:55.032Z,6.45
2019-04-06T01:49:24.645Z,6.36
2019-04-06T01:51:54.170Z,6.37
2019-04-06T01:54:23.511Z,6.34
2019-04-06T01:56:53.005Z,6.34
2019-04-06T01:59:22.399Z,6.29
2019-04-06T02:01:56.081Z,6.33
2019-04-06T02:04:25.494Z,6.31
2019-04-06T02:06:54.989Z,6.27
2019-04-06T02:09:24.318Z,6.31
2019-04-06T02:11:53.831Z,6.33
2019-04-06T02:14:23.186Z,6.31
2019-04-06T02:16:52.673Z,6.33
2019-04-06T02:19:22.144Z,6.40
2019-04-06T02:21:51.437Z,6.43
2019-04-06T02:24:20.756Z,6.48
2019-04-06T02:26:50.301Z,6.56
2019-04-06T02:29:19.641Z,6.47
2019-04-06T02:31:59.354Z,6.47
2019-04-06T02:34:50.650Z,6.51
2019-04-06T02:37:45.706Z,6.54
2019-04-06T02:40:36.987Z,6.47
2019-04-06T02:43:10.252Z,6.51
2019-04-06T02:45:39.533Z,6.53
2019-04-06T02:48:08.881Z,6.49
2019-04-06T02:50:38.437Z,6.46
2019-04-06T02:53:07.684Z,6.50
2019-04-06T02:55:36.997Z,6.52
2019-04-06T02:58:06.643Z,6.49
2019-04-06T03:00:36.339Z,6.51
2019-04-06T03:03:05.640Z,6.49
2019-04-06T03:05:35.450Z,6.53
2019-04-06T03:08:04.824Z,6.57
2019-04-06T03:10:34.451Z,6.55
2019-04-06T03:13:03.816Z,6.55
2019-04-06T03:15:33.221Z,6.53
2019-04-06T03:18:02.505Z,6.54
2019-04-06T03:20:31.880Z,6.50
2019-04-06T03:23:01.290Z,6.52
2019-04-06T03:25:30.625Z,6.46
2019-04-06T03:28:00.109Z,6.45
2019-04-06T03:30:29.435Z,6.40
2019-04-06T03:32:59.079Z,6.41
2019-04-06T03:35:28.713Z,6.40
2019-04-06T03:37:57.960Z,6.39
2019-04-06T03:40:27.330Z,6.42
2019-04-06T03:42:56.834Z,6.39
2019-04-06T03:45:26.113Z,6.39
2019-04-06T03:47:55.417Z,6.45
2019-04-06T03:50:25.022Z,6.48
2019-04-06T03:52:54.384Z,6.49
2019-04-06T03:55:23.756Z,6.46
2019-04-06T03:57:53.561Z,6.47
2019-04-06T04:00:22.884Z,6.47
2019-04-06T04:02:52.709Z,6.39
2019-04-06T04:05:22.940Z,6.45
2019-04-06T04:07:52.638Z,6.41
2019-04-06T04:10:36.377Z,6.43
2019-04-06T04:13:06.043Z,6.41
2019-04-06T04:15:35.353Z,6.40
2019-04-06T04:18:04.808Z,6.37
2019-04-06T04:20:34.095Z,6.34
2019-04-06T04:23:03.335Z,6.31
2019-04-06T04:25:32.838Z,6.32
2019-04-06T04:28:02.157Z,6.31
2019-04-06T04:30:34.052Z,6.32
2019-04-06T04:33:02.845Z,6.35
2019-04-06T04:35:32.437Z,6.35
2019-04-06T04:38:01.800Z,6.34
2019-04-06T04:40:31.333Z,6.41
2019-04-06T04:43:00.645Z,6.37
2019-04-06T04:45:29.924Z,6.37
2019-04-06T04:47:59.416Z,6.45
2019-04-06T04:50:28.716Z,6.41
2019-04-06T04:52:58.056Z,6.46
2019-04-06T04:55:27.573Z,6.48
2019-04-06T04:57:56.862Z,6.51
2019-04-06T05:00:26.155Z,6.55
2019-04-06T05:02:55.797Z,6.53
2019-04-06T05:05:25.203Z,6.55
2019-04-06T05:07:54.487Z,6.57
2019-04-06T05:10:23.950Z,6.77
2019-04-06T05:12:53.566Z,6.99
2019-04-06T05:15:47.966Z,7.22
2019-04-06T05:18:17.222Z,7.27
2019-04-06T05:20:46.515Z,7.69
2019-04-06T05:23:16.099Z,7.69
2019-04-06T05:25:45.399Z,7.86
2019-04-06T05:28:14.684Z,7.78
2019-04-06T05:30:44.339Z,7.98
2019-04-06T05:33:13.803Z,8.06
2019-04-06T05:35:43.242Z,8.01
2019-04-06T05:38:12.913Z,8.15
2019-04-06T05:40:42.218Z,8.22
2019-04-06T05:43:11.543Z,8.25
2019-04-06T05:45:41.180Z,8.47
2019-04-06T05:48:10.495Z,8.58
2019-04-06T05:50:39.803Z,8.71
2019-04-06T05:53:09.352Z,8.64
2019-04-06T05:55:38.706Z,8.64
2019-04-06T05:58:10.647Z,8.53
2019-04-06T06:00:40.530Z,8.65
2019-04-06T06:03:11.360Z,8.92
2019-04-06T06:05:41.257Z,9.03
2019-04-06T06:08:10.582Z,9.24
2019-04-06T06:10:39.864Z,9.42
2019-04-06T06:13:09.311Z,9.59
2019-04-06T06:15:38.705Z,9.50
2019-04-06T06:18:07.989Z,9.75
2019-04-06T06:20:37.391Z,9.71
2019-04-06T06:23:06.728Z,9.64
2019-04-06T06:25:36.283Z,9.80
2019-04-06T06:28:14.656Z,9.84
2019-04-06T06:30:36.812Z,9.94
2019-04-06T06:33:06.400Z,10.55
2019-04-06T06:35:35.701Z,10.52
2019-04-06T06:38:05.039Z,10.77
2019-04-06T06:40:34.449Z,10.53
2019-04-06T06:43:03.713Z,10.28
2019-04-06T06:45:33.154Z,10.48
2019-04-06T06:48:02.660Z,10.50
2019-04-06T06:50:34.463Z,10.93
2019-04-06T06:53:03.086Z,10.83
2019-04-06T06:55:32.567Z,10.94
2019-04-06T06:58:01.856Z,11.19
2019-04-06T07:00:31.368Z,11.72
2019-04-06T07:03:00.686Z,11.90
2019-04-06T07:05:30.006Z,11.31
2019-04-06T07:07:59.705Z,11.26
2019-04-06T07:10:29.009Z,11.36
2019-04-06T07:12:58.335Z,11.16
2019-04-06T07:15:27.938Z,11.75
2019-04-06T07:17:57.254Z,11.92
2019-04-06T07:20:26.560Z,12.21
2019-04-06T07:22:56.169Z,11.42
2019-04-06T07:25:25.498Z,11.90
2019-04-06T07:27:54.769Z,11.94
2019-04-06T07:30:24.124Z,12.32
2019-04-06T07:32:55.412Z,12.24
2019-04-06T07:35:24.477Z,12.44
2019-04-06T07:37:53.813Z,12.49
2019-04-06T07:40:23.099Z,12.32
2019-04-06T07:42:52.356Z,12.47
2019-04-06T07:45:21.676Z,12.35
2019-04-06T07:47:50.990Z,12.26
2019-04-06T07:50:20.588Z,12.10
2019-04-06T07:52:50.019Z,12.04
2019-04-06T07:55:19.320Z,13.04
2019-04-06T07:57:48.625Z,13.02
2019-04-06T08:00:18.278Z,12.46
2019-04-06T08:02:47.796Z,12.79
2019-04-06T08:05:17.179Z,12.36
2019-04-06T08:07:46.866Z,12.39
2019-04-06T08:10:16.470Z,12.16
2019-04-06T08:12:46.111Z,12.21
2019-04-06T08:15:15.652Z,11.90
2019-04-06T08:17:44.902Z,12.62
2019-04-06T08:20:14.318Z,12.50
2019-04-06T08:22:44.012Z,12.53
2019-04-06T08:25:13.622Z,12.28
2019-04-06T08:27:42.902Z,12.65
2019-04-06T08:30:12.595Z,12.78
2019-04-06T08:32:41.953Z,12.53
2019-04-06T08:35:11.847Z,12.00
2019-04-06T08:37:41.373Z,11.69
2019-04-06T08:40:11.105Z,12.82
2019-04-06T08:42:40.397Z,12.72
2019-04-06T08:45:10.796Z,12.99
2019-04-06T08:47:40.203Z,12.91
2019-04-06T08:50:10.136Z,13.45
2019-04-06T08:52:39.580Z,12.54
2019-04-06T08:55:09.209Z,12.50
2019-04-06T08:57:38.459Z,12.54
2019-04-06T09:00:08.187Z,13.14
2019-04-06T09:02:37.568Z,13.25
2019-04-06T09:05:07.007Z,13.72
2019-04-06T09:07:36.511Z,12.65
2019-04-06T09:10:06.415Z,12.75
2019-04-06T09:12:35.755Z,13.10
2019-04-06T09:15:05.352Z,12.56
2019-04-06T09:17:34.716Z,13.69
2019-04-06T09:20:04.603Z,13.23
2019-04-06T09:22:34.049Z,12.71
2019-04-06T09:25:03.358Z,12.93
2019-04-06T09:27:33.120Z,13.21
2019-04-06T09:30:02.780Z,13.92
2019-04-06T09:32:32.304Z,13.14
2019-04-06T09:35:01.571Z,12.64
2019-04-06T09:37:31.239Z,12.93
2019-04-06T09:40:00.532Z,14.09
2019-04-06T09:42:30.004Z,14.03
2019-04-06T09:45:21.366Z,14.13
2019-04-06T09:47:55.971Z,13.97
2019-04-06T09:50:38.927Z,13.13
2019-04-06T09:53:40.110Z,13.11
2019-04-06T09:56:17.181Z,14.37
2019-04-06T09:59:11.992Z,14.07
2019-04-06T10:02:00.909Z,13.33
2019-04-06T10:04:58.394Z,12.92
2019-04-06T10:07:45.429Z,13.42
2019-04-06T10:10:43.029Z,12.83
2019-04-06T10:13:29.871Z,13.67
2019-04-06T10:16:20.603Z,13.48
2019-04-06T10:19:04.493Z,14.28
2019-04-06T10:22:01.920Z,13.83
2019-04-06T10:24:56.270Z,13.77
2019-04-06T10:27:45.722Z,13.50
2019-04-06T10:30:38.818Z,14.03
2019-04-06T10:33:26.156Z,13.16
2019-04-06T10:36:05.981Z,13.96
2019-04-06T10:38:57.261Z,13.41
2019-04-06T10:41:36.712Z,13.25
2019-04-06T10:44:28.397Z,13.86
2019-04-06T10:47:03.673Z,14.66
2019-04-06T10:49:51.908Z,14.17
2019-04-06T10:52:31.393Z,14.37
2019-04-06T10:55:18.384Z,13.37
2019-04-06T10:58:02.615Z,13.61
2019-04-06T11:01:02.756Z,12.12
2019-04-06T11:04:03.378Z,13.35
2019-04-06T11:06:42.582Z,13.26
2019-04-06T11:09:29.945Z,13.54
2019-04-06T11:12:10.792Z,12.98
2019-04-06T11:14:54.226Z,12.47
2019-04-06T11:17:51.684Z,12.09
2019-04-06T11:20:38.891Z,12.17
2019-04-06T11:23:29.871Z,11.87
2019-04-06T11:26:21.395Z,11.74
2019-04-06T11:29:25.070Z,11.00
2019-04-06T11:32:12.460Z,11.05
2019-04-06T11:35:06.975Z,10.35
2019-04-06T11:37:54.361Z,9.58
2019-04-06T11:40:41.580Z,9.46
2019-04-06T11:43:20.953Z,9.31
2019-04-06T11:46:24.675Z,9.26
2019-04-06T11:49:11.502Z,8.72
2019-04-06T11:51:51.067Z,8.90
2019-04-06T11:54:29.834Z,9.36
2019-04-06T11:57:07.261Z,9.21
2019-04-06T12:00:23.598Z,8.71
2019-04-06T12:02:54.069Z,9.10
2019-04-06T12:05:31.522Z,9.08
2019-04-06T12:08:12.660Z,8.98
2019-04-06T12:10:50.006Z,8.78
2019-04-06T12:13:41.100Z,8.64
2019-04-06T12:16:35.120Z,8.55
2019-04-06T12:19:21.968Z,8.54
2019-04-06T12:22:07.377Z,8.55
2019-04-06T12:24:54.009Z,8.43
2019-04-06T12:27:45.271Z,8.39
2019-04-06T12:30:36.681Z,8.39
2019-04-06T12:33:14.333Z,8.49
2019-04-06T12:35:56.057Z,8.53
2019-04-06T12:38:44.509Z,8.59
2019-04-06T12:41:48.069Z,8.47
2019-04-06T12:44:42.245Z,8.24
2019-04-06T12:47:19.549Z,8.43
2019-04-06T12:50:07.079Z,8.22
2019-04-06T12:52:58.075Z,8.39
2019-04-06T12:55:49.674Z,8.54
2019-04-06T12:58:44.091Z,8.40
2019-04-06T13:01:32.679Z,8.56
2019-04-06T13:04:39.325Z,8.25
2019-04-06T13:07:34.018Z,8.20
2019-04-06T13:10:14.807Z,8.42
2019-04-06T13:13:03.308Z,8.32
2019-04-06T13:15:50.179Z,8.14
2019-04-06T13:18:41.210Z,7.88
2019-04-06T13:21:29.775Z,8.11
2019-04-06T13:24:13.788Z,8.04
2019-04-06T13:27:02.068Z,7.94
2019-04-06T13:29:55.142Z,8.13
2019-04-06T13:32:43.405Z,8.27
2019-04-06T13:35:17.763Z,8.30
2019-04-06T13:38:24.109Z,8.13
2019-04-06T13:41:11.297Z,8.03
2019-04-06T13:43:46.614Z,8.19
2019-04-06T13:46:35.322Z,8.44
2019-04-06T13:49:21.354Z,8.30
2019-04-06T13:51:57.417Z,8.35
2019-04-06T13:54:54.883Z,8.12
2019-04-06T13:57:31.306Z,8.11
2019-04-06T14:00:19.509Z,8.07
2019-04-06T14:02:55.985Z,7.94
2019-04-06T14:05:43.194Z,8.13
2019-04-06T14:08:40.700Z,8.15
2019-04-06T14:11:32.019Z,8.12
2019-04-06T14:14:20.682Z,8.12
2019-04-06T14:17:07.559Z,8.08
2019-04-06T14:19:54.784Z,8.02
2019-04-06T14:22:48.320Z,8.05
2019-04-06T14:25:40.231Z,8.00
2019-04-06T14:28:25.926Z,7.81
2019-04-06T14:31:27.370Z,7.91
2019-04-06T14:34:07.320Z,7.94
2019-04-06T14:36:49.588Z,8.03
2019-04-06T14:39:36.249Z,7.72
2019-04-06T14:42:27.600Z,7.74
2019-04-06T14:45:14.660Z,7.68
2019-04-06T14:48:15.418Z,7.62
2019-04-06T14:51:12.923Z,7.70
2019-04-06T14:54:16.530Z,7.77
2019-04-06T14:57:17.041Z,7.73
2019-04-06T14:59:59.111Z,7.64
2019-04-06T15:02:35.267Z,7.62
2019-04-06T15:05:22.579Z,7.71
2019-04-06T15:08:20.174Z,7.79
2019-04-06T15:11:14.845Z,7.84
2019-04-06T15:14:05.909Z,7.82
2019-04-06T15:16:47.008Z,7.51
2019-04-06T15:19:23.541Z,7.47
2019-04-06T15:22:04.429Z,7.33
2019-04-06T15:24:56.742Z,7.21
2019-04-06T15:27:44.464Z,7.27
2019-04-06T15:30:31.479Z,7.18
2019-04-06T15:33:18.729Z,7.06
2019-04-06T15:36:13.080Z,7.02
2019-04-06T15:39:04.666Z,7.02
2019-04-06T15:41:55.755Z,6.93
2019-04-06T15:44:34.781Z,6.96
2019-04-06T15:47:21.810Z,6.85
2019-04-06T15:50:16.449Z,6.79
2019-04-06T15:53:13.679Z,6.81
2019-04-06T15:55:53.403Z,6.78
2019-04-06T15:58:28.157Z,6.78
2019-04-06T16:01:14.322Z,6.79
2019-04-06T16:03:59.982Z,6.77
2019-04-06T16:06:57.375Z,6.75
2019-04-06T16:09:54.686Z,6.64
2019-04-06T16:12:38.820Z,6.65
2019-04-06T16:15:29.899Z,6.62
2019-04-06T16:18:18.706Z,6.58
2019-04-06T16:21:06.424Z,6.50
2019-04-06T16:24:02.300Z,6.50
2019-04-06T16:26:29.675Z,6.48
2019-04-06T16:29:11.007Z,6.46
2019-04-06T16:31:54.178Z,6.45
2019-04-06T16:34:35.559Z,6.49
2019-04-06T16:37:30.179Z,6.38
2019-04-06T16:40:30.945Z,6.38
2019-04-06T16:43:11.903Z,6.36
2019-04-06T16:45:51.186Z,6.31
2019-04-06T16:48:52.406Z,6.29
2019-04-06T16:51:47.096Z,6.17
2019-04-06T16:54:47.407Z,6.20
2019-04-06T16:57:39.848Z,6.16
2019-04-06T17:00:37.779Z,6.08
2019-04-06T17:03:28.909Z,6.05
2019-04-06T17:06:14.591Z,6.00
2019-04-06T17:09:01.190Z,5.97
2019-04-06T17:11:52.443Z,5.90
2019-04-06T17:14:52.968Z,5.89
2019-04-06T17:17:44.121Z,5.89
2019-04-06T17:20:38.995Z,5.86
2019-04-06T17:23:25.928Z,5.81
2019-04-06T17:26:15.667Z,5.77
2019-04-06T17:28:57.709Z,5.74
2019-04-06T17:31:44.430Z,5.65
2019-04-06T17:34:35.433Z,5.58
2019-04-06T17:37:24.536Z,5.48
2019-04-06T17:40:11.192Z,5.37
2019-04-06T17:42:47.133Z,5.31
2019-04-06T17:45:35.784Z,5.27
2019-04-06T17:48:24.109Z,5.25
2019-04-06T17:51:18.241Z,5.15
2019-04-06T17:54:05.268Z,5.01
2019-04-06T17:56:44.492Z,4.90
2019-04-06T17:59:35.941Z,4.77
2019-04-06T18:02:33.514Z,4.61
2019-04-06T18:05:22.098Z,4.42
2019-04-06T18:07:58.438Z,4.28
2019-04-06T18:10:50.299Z,4.19
2019-04-06T18:13:40.219Z,4.10
2019-04-06T18:16:10.208Z,3.98
2019-04-06T18:18:39.862Z,3.85
2019-04-06T18:21:09.834Z,3.77
2019-04-06T18:23:39.764Z,3.66
2019-04-06T18:26:09.109Z,3.59
2019-04-06T18:28:38.442Z,3.51
2019-04-06T18:31:30.494Z,3.44
2019-04-06T18:34:00.677Z,3.39
2019-04-06T18:36:48.165Z,3.30
2019-04-06T18:39:17.604Z,3.24
2019-04-06T18:41:55.564Z,3.20
2019-04-06T18:44:25.640Z,3.13
2019-04-06T18:46:56.621Z,3.04
2019-04-06T18:49:27.537Z,3.02
2019-04-06T18:51:57.752Z,3.00
2019-04-06T18:54:27.789Z,3.01
2019-04-06T18:56:58.107Z,2.97
2019-04-06T18:59:27.967Z,2.95
2019-04-06T19:01:57.359Z,2.95
2019-04-06T19:04:27.468Z,2.88
2019-04-06T19:06:58.109Z,2.80
2019-04-06T19:09:28.652Z,2.78
2019-04-06T19:11:59.718Z,2.75
2019-04-06T19:14:29.804Z,2.75
2019-04-06T19:17:00.842Z,2.80
2019-04-06T19:19:30.939Z,2.89
2019-04-06T19:22:01.431Z,3.03
2019-04-06T19:24:31.451Z,3.06
2019-04-06T19:27:01.838Z,3.08
2019-04-06T19:29:31.893Z,3.04
2019-04-06T19:32:01.683Z,2.98
2019-04-06T19:34:31.466Z,2.89
2019-04-06T19:37:01.618Z,2.77
2019-04-06T19:39:31.856Z,2.67
2019-04-06T19:42:02.747Z,2.60
2019-04-06T19:44:32.704Z,2.51
2019-04-06T19:47:03.000Z,2.43
2019-04-06T19:49:32.761Z,2.36
2019-04-06T19:52:02.797Z,2.30
2019-04-06T19:54:33.334Z,2.21
2019-04-06T19:57:03.610Z,2.13
2019-04-06T19:59:33.791Z,2.10
2019-04-06T20:02:03.055Z,2.07
2019-04-06T20:04:32.378Z,2.05
2019-04-06T20:07:01.856Z,2.01
2019-04-06T20:09:31.188Z,1.98
2019-04-06T20:12:06.096Z,1.97
2019-04-06T20:14:31.769Z,1.96
2019-04-06T20:17:01.020Z,1.95
2019-04-06T20:19:30.341Z,1.89
2019-04-06T20:21:59.816Z,1.87
2019-04-06T20:24:29.939Z,1.83
2019-04-06T20:26:59.877Z,1.81
2019-04-06T20:29:29.545Z,1.76
2019-04-06T20:31:58.780Z,1.75
2019-04-06T20:34:28.468Z,1.68
2019-04-06T20:36:58.034Z,1.64
2019-04-06T20:39:27.285Z,1.62
2019-04-06T20:41:56.629Z,1.61
2019-04-06T20:44:26.516Z,1.64
2019-04-06T20:46:55.920Z,1.72
2019-04-06T20:49:25.329Z,1.81
2019-04-06T20:51:55.006Z,1.84
2019-04-06T20:54:24.615Z,1.77
2019-04-06T20:56:58.163Z,1.74
2019-04-06T20:59:25.468Z,1.75
2019-04-06T21:01:54.749Z,1.78
2019-04-06T21:04:24.721Z,1.84
2019-04-06T21:06:54.967Z,1.83
2019-04-06T21:09:24.350Z,1.85
2019-04-06T21:11:53.654Z,1.78
2019-04-06T21:14:23.324Z,1.72
2019-04-06T21:16:53.362Z,1.64
2019-04-06T21:19:22.847Z,1.58
2019-04-06T21:21:52.152Z,1.51
2019-04-06T21:24:21.474Z,1.46
2019-04-06T21:26:50.798Z,1.42
2019-04-06T21:29:20.361Z,1.37
2019-04-06T21:31:49.890Z,1.31
2019-04-06T21:34:19.374Z,1.27
2019-04-06T21:36:49.530Z,1.23
2019-04-06T21:39:19.054Z,1.18
2019-04-06T21:41:48.692Z,1.15
2019-04-06T21:44:18.014Z,1.12
2019-04-06T21:46:47.303Z,1.11
2019-04-06T21:49:16.701Z,1.10
2019-04-06T21:51:46.072Z,1.09
2019-04-06T21:54:15.978Z,1.04
2019-04-06T21:56:45.367Z,1.01
2019-04-06T21:59:16.089Z,0.98
2019-04-06T22:01:46.532Z,0.93
2019-04-06T22:04:24.933Z,0.89
2019-04-06T22:06:47.339Z,0.85
2019-04-06T22:09:16.545Z,0.81
2019-04-06T22:11:46.057Z,0.77
2019-04-06T22:14:15.850Z,0.71
2019-04-06T22:16:45.808Z,0.67
2019-04-06T22:19:15.715Z,0.61
2019-04-06T22:21:45.266Z,0.56
2019-04-06T22:24:14.930Z,0.54
2019-04-06T22:26:44.411Z,0.52
2019-04-06T22:29:14.020Z,0.52
2019-04-06T22:31:43.743Z,0.49
2019-04-06T22:34:13.549Z,0.49
2019-04-06T22:36:42.837Z,0.44
2019-04-06T22:39:12.298Z,0.52
2019-04-06T22:41:42.059Z,0.52
2019-04-06T22:44:11.367Z,0.50
2019-04-06T22:46:40.805Z,0.53
2019-04-06T22:49:10.288Z,0.52
2019-04-06T22:51:40.053Z,0.47
2019-04-06T22:54:10.602Z,0.41
2019-04-06T22:56:40.138Z,0.37
2019-04-06T22:59:09.676Z,0.34
2019-04-06T23:01:40.545Z,0.31
2019-04-06T23:04:31.077Z,0.30
2019-04-06T23:07:03.194Z,0.26
2019-04-06T23:09:41.712Z,0.27
2019-04-06T23:12:10.993Z,0.23
2019-04-06T23:14:40.333Z,0.18
2019-04-06T23:17:10.244Z,0.17
2019-04-06T23:19:39.600Z,0.13
2019-04-06T23:22:09.074Z,0.08
2019-04-06T23:24:38.711Z,0.02
2019-04-06T23:27:08.544Z,0.00
2019-04-06T23:29:38.061Z,0.03
2019-04-06T23:32:08.009Z,0.11
2019-04-06T23:34:37.294Z,0.21
2019-04-06T23:37:07.224Z,0.35
2019-04-06T23:39:37.065Z,0.45
2019-04-06T23:42:06.902Z,0.59
2019-04-06T23:44:36.424Z,0.69
2019-04-06T23:47:06.008Z,0.81
2019-04-06T23:49:35.244Z,0.93
2019-04-06T23:52:04.515Z,1.03
2019-04-06T23:54:34.621Z,1.10
2019-04-06T23:57:04.682Z,1.15
2019-04-06T23:59:33.990Z,1.16
